Time;durP1;ratioP1;P1;durP2;ratioP2;P2;SDS_P1;SDS_P2;PMS_P1;PMS_P2;Temp;Humidity;BMP_temperature;BMP_pressure;BME280_temperature;BME280_humidity;BME280_pressure;Samples;Min_cycle;Max_cycle;Signal;HPM_P1;HPM_P2
2021/09/07 00:01:40;;;;;;;8.07;5.70;;;;;;;;;;4964352;28;20420;-86
2021/09/07 00:04:07;;;;;;;6.57;5.57;;;;;;;;;;4975715;28;20400;-87
2021/09/07 00:06:34;;;;;;;7.75;5.22;;;;;;;;;;4961611;28;20409;-87
2021/09/07 00:09:01;;;;;;;7.53;5.55;;;;;;;;;;4968415;28;20411;-87
2021/09/07 00:11:29;;;;;;;6.60;5.45;;;;;;;;;;4971655;28;20408;-87
2021/09/07 00:13:56;;;;;;;6.63;5.30;;;;;;;;;;4960881;28;20417;-88
2021/09/07 00:16:23;;;;;;;6.13;5.50;;;;;;;;;;4969098;28;20499;-87
2021/09/07 00:18:50;;;;;;;8.18;5.60;;;;;;;;;;4963957;28;20411;-86
2021/09/07 00:21:16;;;;;;;7.32;5.80;;;;;;;;;;4972444;28;20465;-86
2021/09/07 00:23:43;;;;;;;8.27;5.43;;;;;;;;;;4972294;28;20890;-88
2021/09/07 00:26:10;;;;;;;6.90;5.85;;;;;;;;;;4980486;28;20418;-87
2021/09/07 00:28:39;;;;;;;8.57;5.85;;;;;;;;;;4965862;28;20437;-87
2021/09/07 00:31:05;;;;;;;7.68;6.10;;;;;;;;;;4967037;28;20413;-87
2021/09/07 00:33:32;;;;;;;7.80;5.55;;;;;;;;;;4970689;28;20402;-86
2021/09/07 00:35:59;;;;;;;7.87;5.50;;;;;;;;;;4967976;28;20981;-87
2021/09/07 00:38:26;;;;;;;6.95;5.70;;;;;;;;;;4967279;28;20414;-87
2021/09/07 00:40:53;;;;;;;7.05;5.43;;;;;;;;;;4977309;28;21208;-87
2021/09/07 00:43:20;;;;;;;7.33;5.80;;;;;;;;;;4967770;28;20759;-86
2021/09/07 00:45:49;;;;;;;9.35;5.95;;;;;;;;;;4977252;28;20404;-88
2021/09/07 00:48:16;;;;;;;7.07;5.60;;;;;;;;;;4968646;28;20449;-86
2021/09/07 00:50:43;;;;;;;6.38;5.78;;;;;;;;;;4966663;28;20414;-87
2021/09/07 00:53:10;;;;;;;6.63;5.80;;;;;;;;;;4966922;28;20425;-86
2021/09/07 00:55:36;;;;;;;7.40;5.60;;;;;;;;;;4982609;28;20885;-87
2021/09/07 00:58:04;;;;;;;6.35;5.72;;;;;;;;;;4978342;28;20407;-87
2021/09/07 01:00:31;;;;;;;7.22;5.85;;;;;;;;;;4982428;28;20413;-88
2021/09/07 01:03:00;;;;;;;6.65;5.95;;;;;;;;;;4978404;28;20409;-87
2021/09/07 01:05:26;;;;;;;7.23;5.73;;;;;;;;;;4982431;28;20408;-87
2021/09/07 01:07:54;;;;;;;7.20;5.72;;;;;;;;;;4974631;28;20442;-86
2021/09/07 01:10:21;;;;;;;6.78;5.82;;;;;;;;;;4970543;28;20402;-86
2021/09/07 01:12:48;;;;;;;7.32;6.00;;;;;;;;;;4967578;28;20409;-87
2021/09/07 01:15:16;;;;;;;7.25;5.80;;;;;;;;;;4967048;28;21088;-88
2021/09/07 01:17:43;;;;;;;9.60;5.75;;;;;;;;;;4980503;28;20437;-87
2021/09/07 01:20:13;;;;;;;8.55;5.82;;;;;;;;;;4985963;28;20464;-87
2021/09/07 01:22:40;;;;;;;7.77;6.03;;;;;;;;;;4977646;28;20813;-86
2021/09/07 01:25:09;;;;;;;6.80;6.10;;;;;;;;;;4969265;28;20419;-87
2021/09/07 01:27:36;;;;;;;9.50;6.22;;;;;;;;;;4978653;28;20426;-87
2021/09/07 01:30:03;;;;;;;6.50;5.80;;;;;;;;;;4966774;28;20413;-87
2021/09/07 01:32:30;;;;;;;7.57;5.88;;;;;;;;;;4966776;28;20399;-87
2021/09/07 01:34:57;;;;;;;7.40;5.93;;;;;;;;;;4981722;28;20406;-87
2021/09/07 01:37:24;;;;;;;8.37;5.57;;;;;;;;;;4966915;28;20414;-86
2021/09/07 01:39:50;;;;;;;7.40;5.67;;;;;;;;;;4981014;28;20421;-86
2021/09/07 01:42:22;;;;;;;8.07;5.77;;;;;;;;;;4983683;28;20418;-87
2021/09/07 01:44:49;;;;;;;9.25;5.88;;;;;;;;;;4970900;28;20414;-87
2021/09/07 01:47:16;;;;;;;8.20;5.80;;;;;;;;;;4982269;28;20413;-87
2021/09/07 01:49:43;;;;;;;8.25;6.00;;;;;;;;;;4971319;28;20453;-88
2021/09/07 01:52:11;;;;;;;7.50;6.32;;;;;;;;;;4989215;28;20408;-87
2021/09/07 01:54:42;;;;;;;8.38;6.03;;;;;;;;;;4973716;28;20413;-87
2021/09/07 01:57:09;;;;;;;6.60;5.72;;;;;;;;;;4970195;28;20434;-87
2021/09/07 01:59:38;;;;;;;6.37;5.67;;;;;;;;;;4974126;28;20471;-87
2021/09/07 02:02:05;;;;;;;8.18;6.22;;;;;;;;;;4974130;28;20451;-87
2021/09/07 02:04:32;;;;;;;7.85;6.10;;;;;;;;;;4977728;28;20432;-87
2021/09/07 02:06:59;;;;;;;6.40;5.80;;;;;;;;;;4970619;28;20409;-87
2021/09/07 02:09:26;;;;;;;7.95;5.95;;;;;;;;;;4977317;28;20933;-87
2021/09/07 02:11:53;;;;;;;7.38;5.80;;;;;;;;;;4983199;28;20422;-87
2021/09/07 02:14:20;;;;;;;7.55;5.80;;;;;;;;;;4978333;28;20406;-87
2021/09/07 02:16:49;;;;;;;7.28;5.97;;;;;;;;;;4980174;28;20407;-87
2021/09/07 02:19:15;;;;;;;6.47;5.88;;;;;;;;;;4981742;28;20484;-87
2021/09/07 02:21:42;;;;;;;7.07;5.75;;;;;;;;;;4979626;28;20414;-87
2021/09/07 02:24:09;;;;;;;7.97;6.00;;;;;;;;;;4983246;28;21238;-87
2021/09/07 02:26:36;;;;;;;9.05;6.20;;;;;;;;;;4980496;28;20413;-87
2021/09/07 02:29:03;;;;;;;7.55;6.57;;;;;;;;;;4977897;28;20728;-87
2021/09/07 02:31:30;;;;;;;7.90;6.30;;;;;;;;;;4977110;28;20408;-87
2021/09/07 02:33:59;;;;;;;9.90;6.33;;;;;;;;;;4978199;28;20409;-86
2021/09/07 02:36:26;;;;;;;7.57;6.43;;;;;;;;;;4977779;28;20879;-87
2021/09/07 02:38:54;;;;;;;7.80;6.00;;;;;;;;;;4979824;28;20417;-87
2021/09/07 02:41:21;;;;;;;8.70;6.30;;;;;;;;;;4974390;28;21424;-87
2021/09/07 02:43:48;;;;;;;8.57;6.30;;;;;;;;;;4973134;28;20405;-87
2021/09/07 02:46:15;;;;;;;7.10;6.00;;;;;;;;;;4975013;28;20809;-87
2021/09/07 02:48:41;;;;;;;8.32;6.03;;;;;;;;;;4982833;28;20447;-86
2021/09/07 02:51:10;;;;;;;7.47;6.18;;;;;;;;;;4967967;28;20410;-87
2021/09/07 02:53:37;;;;;;;8.40;6.50;;;;;;;;;;4958932;28;20413;-88
2021/09/07 02:56:04;;;;;;;8.10;5.82;;;;;;;;;;4974514;28;20773;-87
2021/09/07 02:58:31;;;;;;;7.10;6.10;;;;;;;;;;4972254;28;20405;-88
2021/09/07 03:00:57;;;;;;;6.82;5.75;;;;;;;;;;4975747;28;20434;-87
2021/09/07 03:03:24;;;;;;;8.40;6.15;;;;;;;;;;4972019;28;20429;-87
2021/09/07 03:05:52;;;;;;;8.50;5.78;;;;;;;;;;4975895;28;20462;-86
2021/09/07 03:08:20;;;;;;;8.20;6.13;;;;;;;;;;4979779;28;20444;-86
2021/09/07 03:10:47;;;;;;;8.48;6.07;;;;;;;;;;4970230;28;20477;-87
2021/09/07 03:13:14;;;;;;;7.45;5.40;;;;;;;;;;4982387;28;20408;-87
2021/09/07 03:15:41;;;;;;;7.88;6.07;;;;;;;;;;4979998;28;20416;-87
2021/09/07 03:18:09;;;;;;;7.25;5.70;;;;;;;;;;4980424;28;20844;-87
2021/09/07 03:20:36;;;;;;;9.40;6.17;;;;;;;;;;4983887;28;20922;-86
2021/09/07 03:23:02;;;;;;;8.23;6.40;;;;;;;;;;4988243;28;20416;-87
2021/09/07 03:25:31;;;;;;;7.93;6.15;;;;;;;;;;4977029;28;20413;-88
2021/09/07 03:27:58;;;;;;;7.57;6.50;;;;;;;;;;4975432;28;20447;-87
2021/09/07 03:30:25;;;;;;;7.85;6.90;;;;;;;;;;4977029;28;20400;-86
2021/09/07 03:32:52;;;;;;;7.78;6.90;;;;;;;;;;4978399;28;20919;-87
2021/09/07 03:35:19;;;;;;;7.83;6.50;;;;;;;;;;4978606;28;20508;-85
2021/09/07 03:37:47;;;;;;;7.97;6.70;;;;;;;;;;4974203;28;20890;-87
2021/09/07 03:40:14;;;;;;;8.02;6.93;;;;;;;;;;4977456;28;20920;-87
2021/09/07 03:42:43;;;;;;;10.05;7.28;;;;;;;;;;4975465;28;20410;-88
2021/09/07 03:45:12;;;;;;;8.25;7.00;;;;;;;;;;4979898;28;20406;-87
2021/09/07 03:47:39;;;;;;;8.98;6.80;;;;;;;;;;4971278;28;20426;-87
2021/09/07 03:50:07;;;;;;;11.53;7.47;;;;;;;;;;4972754;28;20436;-87
2021/09/07 03:52:34;;;;;;;8.57;6.85;;;;;;;;;;4983246;28;20419;-87
2021/09/07 03:55:01;;;;;;;10.02;7.43;;;;;;;;;;4976458;28;20409;-88
2021/09/07 03:57:28;;;;;;;9.45;7.03;;;;;;;;;;4982891;28;20948;-88
2021/09/07 03:59:57;;;;;;;8.95;6.70;;;;;;;;;;4977380;28;20409;-87
2021/09/07 04:02:24;;;;;;;7.75;6.80;;;;;;;;;;4976517;28;20410;-87
2021/09/07 04:04:51;;;;;;;9.23;6.90;;;;;;;;;;4957153;28;21485;-87
2021/09/07 04:07:18;;;;;;;8.55;6.88;;;;;;;;;;4973065;28;20400;-87
2021/09/07 04:09:45;;;;;;;9.43;7.40;;;;;;;;;;4978112;28;20425;-87
2021/09/07 04:12:12;;;;;;;9.63;7.50;;;;;;;;;;4974008;28;20409;-88
2021/09/07 04:14:39;;;;;;;9.85;7.68;;;;;;;;;;4970352;28;20594;-87
2021/09/07 04:17:09;;;;;;;9.90;7.60;;;;;;;;;;4966883;28;20942;-86
2021/09/07 04:19:36;;;;;;;9.02;7.43;;;;;;;;;;4970603;28;20406;-88
2021/09/07 04:22:04;;;;;;;10.18;7.25;;;;;;;;;;4970558;28;20468;-87
2021/09/07 04:24:31;;;;;;;8.47;7.07;;;;;;;;;;4966937;28;20394;-87
2021/09/07 04:26:58;;;;;;;8.93;7.30;;;;;;;;;;4967359;28;20417;-87
2021/09/07 04:29:25;;;;;;;7.38;6.53;;;;;;;;;;4975461;28;20427;-87
2021/09/07 04:31:52;;;;;;;9.03;7.30;;;;;;;;;;4971061;28;20497;-88
2021/09/07 04:34:21;;;;;;;8.40;6.80;;;;;;;;;;4970682;28;20418;-87
2021/09/07 04:36:48;;;;;;;9.65;7.13;;;;;;;;;;4968370;28;20410;-87
2021/09/07 04:39:15;;;;;;;9.88;7.38;;;;;;;;;;4967053;28;20418;-87
2021/09/07 04:41:42;;;;;;;9.87;6.63;;;;;;;;;;4979817;28;20419;-88
2021/09/07 04:44:09;;;;;;;8.88;7.18;;;;;;;;;;4973925;28;20414;-87
2021/09/07 04:46:36;;;;;;;10.15;7.57;;;;;;;;;;4970856;28;20410;-87
2021/09/07 04:49:03;;;;;;;9.95;6.95;;;;;;;;;;4977180;28;20524;-87
2021/09/07 04:51:32;;;;;;;10.20;6.90;;;;;;;;;;4966902;28;20499;-86
2021/09/07 04:54:01;;;;;;;10.70;7.00;;;;;;;;;;4968370;28;20417;-86
2021/09/07 04:56:27;;;;;;;9.75;6.90;;;;;;;;;;4979236;28;20418;-88
2021/09/07 04:58:54;;;;;;;11.45;7.20;;;;;;;;;;4968054;28;20429;-87
2021/09/07 05:01:21;;;;;;;10.50;7.05;;;;;;;;;;4967017;28;20399;-88
2021/09/07 05:03:48;;;;;;;13.55;7.63;;;;;;;;;;4972645;28;20432;-88
2021/09/07 05:06:15;;;;;;;12.13;7.78;;;;;;;;;;4963515;28;20905;-88
2021/09/07 05:08:43;;;;;;;11.20;8.10;;;;;;;;;;4965792;28;20436;-87
2021/09/07 05:11:10;;;;;;;9.95;8.02;;;;;;;;;;4981680;28;20777;-88
2021/09/07 05:13:37;;;;;;;11.43;8.73;;;;;;;;;;4981216;28;20834;-88
2021/09/07 05:16:04;;;;;;;11.55;9.00;;;;;;;;;;4984943;28;20408;-88
2021/09/07 05:18:31;;;;;;;10.98;8.65;;;;;;;;;;4985482;28;20404;-86
2021/09/07 05:20:58;;;;;;;11.05;9.23;;;;;;;;;;4966983;28;20449;-86
2021/09/07 05:23:25;;;;;;;13.68;8.93;;;;;;;;;;4983368;28;20401;-87
2021/09/07 05:25:53;;;;;;;13.07;9.25;;;;;;;;;;4985199;28;20876;-88
2021/09/07 05:28:20;;;;;;;13.65;9.23;;;;;;;;;;4986112;28;20412;-88
2021/09/07 05:30:47;;;;;;;12.50;10.25;;;;;;;;;;4975894;28;20692;-88
2021/09/07 05:33:14;;;;;;;11.30;9.65;;;;;;;;;;4974081;28;20412;-89
2021/09/07 05:35:41;;;;;;;12.00;9.73;;;;;;;;;;4984802;28;20677;-86
2021/09/07 05:38:08;;;;;;;14.38;10.45;;;;;;;;;;4984406;28;20417;-85
2021/09/07 05:40:35;;;;;;;13.43;9.98;;;;;;;;;;4971424;28;20414;-86
2021/09/07 05:43:03;;;;;;;11.45;9.63;;;;;;;;;;4984839;28;20769;-87
2021/09/07 05:45:30;;;;;;;11.20;9.60;;;;;;;;;;4984300;28;20419;-86
2021/09/07 05:47:56;;;;;;;14.30;9.50;;;;;;;;;;4984867;28;20423;-86
2021/09/07 05:50:23;;;;;;;10.90;9.57;;;;;;;;;;4982686;28;20518;-87
2021/09/07 05:52:50;;;;;;;15.63;9.63;;;;;;;;;;4966241;28;20428;-87
2021/09/07 05:55:18;;;;;;;12.98;10.00;;;;;;;;;;4966700;28;20435;-85
2021/09/07 05:57:46;;;;;;;11.87;9.37;;;;;;;;;;4958228;28;20469;-86
2021/09/07 06:00:16;;;;;;;11.50;8.82;;;;;;;;;;4971827;28;20414;-87
2021/09/07 06:02:43;;;;;;;13.65;9.60;;;;;;;;;;4984902;28;20976;-86
2021/09/07 06:05:10;;;;;;;12.27;9.13;;;;;;;;;;4984968;28;20428;-85
2021/09/07 06:07:37;;;;;;;13.95;9.57;;;;;;;;;;4984945;28;20414;-86
2021/09/07 06:10:05;;;;;;;12.88;9.57;;;;;;;;;;4985143;28;20432;-86
2021/09/07 06:12:32;;;;;;;13.45;9.45;;;;;;;;;;4971077;28;20433;-86
2021/09/07 06:14:59;;;;;;;14.10;9.20;;;;;;;;;;4968321;28;20478;-86
2021/09/07 06:17:28;;;;;;;12.82;9.00;;;;;;;;;;4968132;28;20414;-87
2021/09/07 06:19:55;;;;;;;12.35;9.13;;;;;;;;;;4975836;28;20419;-87
2021/09/07 06:22:21;;;;;;;12.02;8.93;;;;;;;;;;4984642;28;20908;-86
2021/09/07 06:24:49;;;;;;;11.93;9.10;;;;;;;;;;4984827;28;20652;-86
2021/09/07 06:27:16;;;;;;;11.30;8.90;;;;;;;;;;4966973;28;20414;-86
2021/09/07 06:29:43;;;;;;;10.82;8.40;;;;;;;;;;4965748;28;20916;-86
2021/09/07 06:32:09;;;;;;;11.73;8.50;;;;;;;;;;4966149;28;20413;-86
2021/09/07 06:34:38;;;;;;;11.30;8.55;;;;;;;;;;4967496;28;20895;-87
2021/09/07 06:37:05;;;;;;;13.10;8.73;;;;;;;;;;4968009;28;20444;-86
2021/09/07 06:39:32;;;;;;;9.70;7.55;;;;;;;;;;4976472;28;20463;-86
2021/09/07 06:41:59;;;;;;;12.02;7.88;;;;;;;;;;4984157;28;20409;-86
2021/09/07 06:44:26;;;;;;;10.57;8.20;;;;;;;;;;4983967;28;20409;-85
2021/09/07 06:46:52;;;;;;;12.40;8.10;;;;;;;;;;4983964;28;20685;-86
2021/09/07 06:49:19;;;;;;;12.23;7.93;;;;;;;;;;4984119;28;20423;-86
2021/09/07 06:51:47;;;;;;;11.65;8.50;;;;;;;;;;4963616;28;20406;-86
2021/09/07 06:54:15;;;;;;;11.77;8.13;;;;;;;;;;4983976;28;20413;-86
2021/09/07 06:56:42;;;;;;;13.88;7.90;;;;;;;;;;4982923;28;20415;-85
2021/09/07 06:59:09;;;;;;;12.23;8.00;;;;;;;;;;4977733;28;20402;-85
2021/09/07 07:01:36;;;;;;;12.13;7.95;;;;;;;;;;4966728;28;20415;-86
2021/09/07 07:04:03;;;;;;;13.27;7.18;;;;;;;;;;4966541;28;20411;-87
2021/09/07 07:06:29;;;;;;;10.77;7.93;;;;;;;;;;4966998;28;20414;-86
2021/09/07 07:08:58;;;;;;;10.57;7.88;;;;;;;;;;4966593;28;20414;-86
2021/09/07 07:11:24;;;;;;;11.02;7.47;;;;;;;;;;4966849;28;20792;-85
2021/09/07 07:13:51;;;;;;;13.30;7.80;;;;;;;;;;4976787;28;20425;-86
2021/09/07 07:16:18;;;;;;;10.93;7.93;;;;;;;;;;4968876;28;20410;-87
2021/09/07 07:18:45;;;;;;;13.80;7.90;;;;;;;;;;4967076;28;20516;-86
2021/09/07 07:21:12;;;;;;;15.60;8.02;;;;;;;;;;4982880;28;20491;-86
2021/09/07 07:23:39;;;;;;;9.77;7.53;;;;;;;;;;4982504;28;20695;-85
2021/09/07 07:26:07;;;;;;;12.23;7.00;;;;;;;;;;4975015;28;20414;-86
2021/09/07 07:28:34;;;;;;;11.35;7.10;;;;;;;;;;4981407;28;20409;-88
2021/09/07 07:31:00;;;;;;;9.52;6.85;;;;;;;;;;4975650;28;20436;-86
2021/09/07 07:33:27;;;;;;;8.70;6.70;;;;;;;;;;4958843;28;20764;-87
2021/09/07 07:35:54;;;;;;;8.80;6.57;;;;;;;;;;4980615;28;20761;-87
2021/09/07 07:38:21;;;;;;;8.30;6.20;;;;;;;;;;4982956;28;20413;-87
2021/09/07 07:40:48;;;;;;;8.80;5.47;;;;;;;;;;4963164;28;20415;-86
2021/09/07 07:43:17;;;;;;;8.07;5.45;;;;;;;;;;4968893;28;20486;-86
2021/09/07 07:45:43;;;;;;;9.50;5.50;;;;;;;;;;4960356;28;20417;-87
2021/09/07 07:48:10;;;;;;;9.20;5.45;;;;;;;;;;4960500;28;20815;-87
2021/09/07 07:50:37;;;;;;;6.28;5.68;;;;;;;;;;4962004;28;20438;-85
2021/09/07 07:53:04;;;;;;;7.50;5.65;;;;;;;;;;4966173;28;20501;-87
2021/09/07 07:55:31;;;;;;;9.60;5.60;;;;;;;;;;4966378;28;20417;-87
2021/09/07 07:57:58;;;;;;;7.40;5.30;;;;;;;;;;4966465;28;20446;-87
2021/09/07 08:00:27;;;;;;;9.02;6.00;;;;;;;;;;4980241;28;20408;-86
2021/09/07 08:02:54;;;;;;;6.53;5.35;;;;;;;;;;4971933;28;20898;-86
2021/09/07 08:05:21;;;;;;;7.77;5.63;;;;;;;;;;4966492;28;20461;-86
2021/09/07 08:07:48;;;;;;;6.23;5.27;;;;;;;;;;4962383;28;20418;-87
2021/09/07 08:10:14;;;;;;;6.45;5.43;;;;;;;;;;4982716;28;20436;-87
2021/09/07 08:12:42;;;;;;;7.65;5.72;;;;;;;;;;4982396;28;20413;-87
2021/09/07 08:15:10;;;;;;;6.75;5.10;;;;;;;;;;4965046;28;20478;-87
2021/09/07 08:17:38;;;;;;;7.13;5.32;;;;;;;;;;4982463;28;20416;-87
2021/09/07 08:20:06;;;;;;;7.72;5.40;;;;;;;;;;4982954;28;20413;-88
2021/09/07 08:22:33;;;;;;;8.13;5.63;;;;;;;;;;4982223;28;20459;-86
2021/09/07 08:25:00;;;;;;;6.38;5.43;;;;;;;;;;4982964;28;20432;-87
2021/09/07 08:27:27;;;;;;;7.20;5.30;;;;;;;;;;4975683;28;20402;-87
2021/09/07 08:29:53;;;;;;;6.55;5.28;;;;;;;;;;4960162;28;20449;-86
2021/09/07 08:32:20;;;;;;;7.63;5.43;;;;;;;;;;4965831;28;20410;-88
2021/09/07 08:34:48;;;;;;;6.55;5.25;;;;;;;;;;4965866;28;20775;-87
2021/09/07 08:37:15;;;;;;;7.05;5.47;;;;;;;;;;4970567;28;20744;-87
2021/09/07 08:39:42;;;;;;;8.02;5.40;;;;;;;;;;4955569;28;20438;-87
2021/09/07 08:42:12;;;;;;;5.97;5.35;;;;;;;;;;4952012;28;20453;-86
2021/09/07 08:44:45;;;;;;;6.93;5.30;;;;;;;;;;4953057;28;20841;-87
2021/09/07 08:47:15;;;;;;;7.75;5.20;;;;;;;;;;4960849;28;20410;-88
2021/09/07 08:49:42;;;;;;;8.80;5.32;;;;;;;;;;4957037;28;20437;-87
2021/09/07 08:52:14;;;;;;;6.22;5.28;;;;;;;;;;4954260;28;20418;-87
2021/09/07 08:54:41;;;;;;;6.32;5.28;;;;;;;;;;4954918;28;20529;-87
2021/09/07 08:57:08;;;;;;;6.65;5.40;;;;;;;;;;4951608;28;20505;-87
2021/09/07 08:59:35;;;;;;;7.30;5.30;;;;;;;;;;4955715;28;20927;-87
2021/09/07 09:02:13;;;;;;;7.45;5.75;;;;;;;;;;4954484;28;20788;-87
2021/09/07 09:04:40;;;;;;;7.40;5.40;;;;;;;;;;4959976;28;20418;-87
2021/09/07 09:07:07;;;;;;;7.00;5.45;;;;;;;;;;4962817;28;20422;-87
2021/09/07 09:09:38;;;;;;;6.57;5.45;;;;;;;;;;4962264;28;22082;-87
2021/09/07 09:12:06;;;;;;;7.70;5.40;;;;;;;;;;4953941;28;20693;-87
2021/09/07 09:14:36;;;;;;;6.38;5.20;;;;;;;;;;4963544;28;20414;-87
2021/09/07 09:17:21;;;;;;;8.23;5.30;;;;;;;;;;4965362;28;20413;-86
2021/09/07 09:19:50;;;;;;;7.18;5.20;;;;;;;;;;4960876;28;20779;-87
2021/09/07 09:22:17;;;;;;;5.70;5.10;;;;;;;;;;4971711;28;20771;-87
2021/09/07 09:24:45;;;;;;;6.88;5.03;;;;;;;;;;4947340;28;20800;-86
2021/09/07 09:27:12;;;;;;;7.83;5.23;;;;;;;;;;4964885;28;20409;-87
2021/09/07 09:29:41;;;;;;;7.47;5.27;;;;;;;;;;4964874;28;20414;-87
2021/09/07 09:32:10;;;;;;;8.32;5.32;;;;;;;;;;4965177;28;20824;-88
2021/09/07 09:34:38;;;;;;;6.50;5.10;;;;;;;;;;4964527;28;20783;-87
2021/09/07 09:37:07;;;;;;;8.27;5.07;;;;;;;;;;4964917;28;20407;-87
2021/09/07 09:39:39;;;;;;;6.95;5.25;;;;;;;;;;4965220;28;20419;-87
2021/09/07 09:42:08;;;;;;;9.50;5.60;;;;;;;;;;4965160;28;20810;-87
2021/09/07 09:44:36;;;;;;;6.97;5.18;;;;;;;;;;4964139;28;20410;-88
2021/09/07 09:47:03;;;;;;;8.77;5.75;;;;;;;;;;4965351;28;20791;-87
2021/09/07 09:49:31;;;;;;;9.02;5.50;;;;;;;;;;4965406;28;20497;-88
2021/09/07 09:52:08;;;;;;;8.98;5.90;;;;;;;;;;4964942;28;20512;-87
2021/09/07 09:54:38;;;;;;;6.78;5.55;;;;;;;;;;4977503;28;20405;-88
2021/09/07 09:57:07;;;;;;;7.25;5.40;;;;;;;;;;4983134;28;20496;-88
2021/09/07 09:59:34;;;;;;;8.13;5.23;;;;;;;;;;4973957;28;20418;-88
2021/09/07 10:02:02;;;;;;;8.53;5.40;;;;;;;;;;4979235;28;20404;-87
2021/09/07 10:04:30;;;;;;;8.82;5.32;;;;;;;;;;4986113;28;20897;-87
2021/09/07 10:06:57;;;;;;;8.03;5.43;;;;;;;;;;4986762;28;20412;-87
2021/09/07 10:09:26;;;;;;;7.78;5.53;;;;;;;;;;4986394;28;20903;-88
2021/09/07 10:11:58;;;;;;;9.23;5.07;;;;;;;;;;4986505;28;20424;-87
2021/09/07 10:14:30;;;;;;;6.70;5.27;;;;;;;;;;4986938;28;20414;-87
2021/09/07 10:17:26;;;;;;;5.78;5.15;;;;;;;;;;4986684;28;20409;-87
2021/09/07 10:20:17;;;;;;;5.82;5.20;;;;;;;;;;4986364;28;20401;-87
2021/09/07 10:25:48;;;;;;;5.80;5.28;;;;;;;;;;4966346;28;20402;-87
2021/09/07 10:28:29;;;;;;;7.72;5.32;;;;;;;;;;4968429;28;20406;-87
2021/09/07 10:30:59;;;;;;;8.18;6.00;;;;;;;;;;4967378;28;20429;-88
2021/09/07 10:33:30;;;;;;;6.25;5.65;;;;;;;;;;4967968;28;20494;-87
2021/09/07 10:36:18;;;;;;;6.05;5.25;;;;;;;;;;4967931;28;20406;-88
2021/09/07 10:38:47;;;;;;;7.38;5.22;;;;;;;;;;4970945;28;20912;-88
2021/09/07 10:41:42;;;;;;;7.47;5.40;;;;;;;;;;4972723;28;20414;-87
2021/09/07 10:44:10;;;;;;;7.25;5.60;;;;;;;;;;4966836;28;20406;-87
2021/09/07 10:46:44;;;;;;;6.97;5.45;;;;;;;;;;4966964;28;20425;-88
2021/09/07 10:49:19;;;;;;;6.30;5.28;;;;;;;;;;4969256;28;20406;-88
2021/09/07 10:52:14;;;;;;;11.05;5.90;;;;;;;;;;4962940;28;20426;-88
2021/09/07 10:54:49;;;;;;;7.80;5.82;;;;;;;;;;4953036;28;20896;-87
2021/09/07 10:57:52;;;;;;;7.95;5.40;;;;;;;;;;4951528;28;21129;-88
2021/09/07 11:00:36;;;;;;;8.48;5.68;;;;;;;;;;4970322;28;20882;-87
2021/09/07 11:03:07;;;;;;;7.13;5.50;;;;;;;;;;4965001;28;20419;-88
2021/09/07 11:05:46;;;;;;;9.00;5.43;;;;;;;;;;4966503;28;20879;-87
2021/09/07 11:08:16;;;;;;;7.90;5.55;;;;;;;;;;4967203;28;20844;-87
2021/09/07 11:10:45;;;;;;;6.03;5.43;;;;;;;;;;4980022;28;20426;-88
2021/09/07 11:13:20;;;;;;;7.72;5.70;;;;;;;;;;4967267;28;20768;-87
2021/09/07 11:15:47;;;;;;;7.20;5.45;;;;;;;;;;4967337;28;21216;-87
2021/09/07 11:18:16;;;;;;;7.13;5.70;;;;;;;;;;4976360;28;20810;-87
2021/09/07 11:20:45;;;;;;;6.53;5.68;;;;;;;;;;4957229;28;20429;-87
2021/09/07 11:26:00;;;;;;;6.35;5.60;;;;;;;;;;4966234;28;20422;-89
2021/09/07 11:28:28;;;;;;;7.03;5.55;;;;;;;;;;4965332;28;20411;-87
2021/09/07 11:30:55;;;;;;;5.97;5.17;;;;;;;;;;4960024;28;20459;-88
2021/09/07 11:33:27;;;;;;;6.20;5.40;;;;;;;;;;4950918;28;20435;-88
2021/09/07 11:35:56;;;;;;;7.30;5.55;;;;;;;;;;4959936;28;20410;-88
2021/09/07 11:38:25;;;;;;;8.55;5.57;;;;;;;;;;4963166;28;20493;-89
2021/09/07 11:40:54;;;;;;;6.78;5.28;;;;;;;;;;4962574;28;20438;-88
2021/09/07 11:43:29;;;;;;;7.18;5.60;;;;;;;;;;4956532;28;20413;-89
2021/09/07 11:46:05;;;;;;;7.95;5.63;;;;;;;;;;4962189;28;20425;-89
2021/09/07 11:48:34;;;;;;;7.13;5.72;;;;;;;;;;4966498;28;20415;-88
2021/09/07 11:51:01;;;;;;;9.38;5.82;;;;;;;;;;4965590;28;20445;-89
2021/09/07 11:53:28;;;;;;;7.63;5.30;;;;;;;;;;4963996;28;20417;-89
2021/09/07 11:55:56;;;;;;;7.23;5.60;;;;;;;;;;4954449;28;20411;-88
2021/09/07 11:58:26;;;;;;;7.60;5.68;;;;;;;;;;4962695;28;20410;-88
2021/09/07 12:01:18;;;;;;;8.52;5.68;;;;;;;;;;4957145;28;20420;-88
2021/09/07 12:03:54;;;;;;;8.38;5.40;;;;;;;;;;4933208;28;20424;-89
2021/09/07 12:06:31;;;;;;;7.65;5.72;;;;;;;;;;4960958;28;20766;-89
2021/09/07 12:09:09;;;;;;;6.43;5.75;;;;;;;;;;4962131;28;20457;-89
2021/09/07 12:11:36;;;;;;;7.88;5.47;;;;;;;;;;4965473;28;20431;-89
2021/09/07 12:14:06;;;;;;;7.15;5.30;;;;;;;;;;4949235;28;20777;-89
2021/09/07 12:16:35;;;;;;;6.30;5.70;;;;;;;;;;4954059;28;20412;-89
2021/09/07 12:19:34;;;;;;;7.25;5.85;;;;;;;;;;4958003;28;20411;-88
2021/09/07 12:22:19;;;;;;;8.50;5.45;;;;;;;;;;4953015;28;20404;-89
2021/09/07 12:25:03;;;;;;;6.40;5.57;;;;;;;;;;4954213;28;20422;-89
2021/09/07 12:27:32;;;;;;;6.85;5.57;;;;;;;;;;4958266;28;20429;-89
2021/09/07 12:30:29;;;;;;;5.82;5.20;;;;;;;;;;4958638;28;20736;-89
2021/09/07 12:32:58;;;;;;;6.53;5.17;;;;;;;;;;4943182;28;20518;-89
2021/09/07 12:35:37;;;;;;;7.93;5.30;;;;;;;;;;4957155;28;20410;-89
2021/09/07 12:38:08;;;;;;;5.85;5.20;;;;;;;;;;4956564;28;20832;-89
2021/09/07 12:40:36;;;;;;;6.43;5.18;;;;;;;;;;4955167;28;20430;-89
2021/09/07 12:43:06;;;;;;;5.60;5.00;;;;;;;;;;4962327;28;20418;-88
2021/09/07 12:45:34;;;;;;;7.10;5.40;;;;;;;;;;4967153;28;20411;-89
2021/09/07 12:48:01;;;;;;;8.40;5.20;;;;;;;;;;4967062;28;20416;-89
2021/09/07 12:50:27;;;;;;;7.15;5.53;;;;;;;;;;4954792;28;20429;-89
2021/09/07 12:52:54;;;;;;;6.20;5.30;;;;;;;;;;4951479;28;20431;-90
2021/09/07 12:55:22;;;;;;;7.57;5.10;;;;;;;;;;4953342;28;20410;-89
2021/09/07 12:57:49;;;;;;;7.38;4.93;;;;;;;;;;4953191;28;20403;-89
2021/09/07 13:00:16;;;;;;;6.25;5.00;;;;;;;;;;4953430;28;20422;-88
2021/09/07 13:02:43;;;;;;;5.50;5.00;;;;;;;;;;4954429;28;20806;-89
2021/09/07 13:05:10;;;;;;;7.38;5.50;;;;;;;;;;4950961;28;20408;-89
2021/09/07 13:07:37;;;;;;;7.50;4.90;;;;;;;;;;4955493;28;20416;-88
2021/09/07 13:10:05;;;;;;;7.20;5.25;;;;;;;;;;4956391;28;20411;-89
2021/09/07 13:12:33;;;;;;;7.47;5.30;;;;;;;;;;4953752;28;20441;-89
2021/09/07 13:15:00;;;;;;;6.22;5.18;;;;;;;;;;4953904;28;20710;-89
2021/09/07 13:17:27;;;;;;;7.90;5.53;;;;;;;;;;4955592;28;20728;-89
2021/09/07 13:19:54;;;;;;;6.55;5.15;;;;;;;;;;4955689;28;20411;-89
2021/09/07 13:22:21;;;;;;;7.15;5.40;;;;;;;;;;4957656;28;20430;-89
2021/09/07 13:24:47;;;;;;;7.03;5.30;;;;;;;;;;4956620;28;20421;-89
2021/09/07 13:27:14;;;;;;;6.13;5.10;;;;;;;;;;4957605;28;20947;-89
2021/09/07 13:29:43;;;;;;;6.75;5.63;;;;;;;;;;4952872;28;20420;-88
2021/09/07 13:32:10;;;;;;;6.68;5.28;;;;;;;;;;4960152;28;20435;-89
2021/09/07 13:34:37;;;;;;;8.50;5.47;;;;;;;;;;4954732;28;20415;-88
2021/09/07 13:37:05;;;;;;;7.72;5.38;;;;;;;;;;4958871;28;20530;-89
2021/09/07 13:39:32;;;;;;;9.27;5.13;;;;;;;;;;4959728;28;20438;-89
2021/09/07 13:41:59;;;;;;;6.50;5.45;;;;;;;;;;4966485;28;20402;-89
2021/09/07 13:44:26;;;;;;;5.72;5.07;;;;;;;;;;4965141;28;20415;-91
2021/09/07 13:46:54;;;;;;;5.95;5.10;;;;;;;;;;4956554;28;20498;-89
2021/09/07 13:49:21;;;;;;;6.18;5.25;;;;;;;;;;4959975;28;20402;-89
2021/09/07 13:51:48;;;;;;;6.37;5.10;;;;;;;;;;4963605;28;20422;-89
2021/09/07 13:54:15;;;;;;;6.70;5.10;;;;;;;;;;4972092;28;20404;-89
2021/09/07 13:56:42;;;;;;;7.20;5.05;;;;;;;;;;4968131;28;20423;-89
2021/09/07 13:59:09;;;;;;;6.13;5.00;;;;;;;;;;4959382;28;20415;-90
2021/09/07 14:01:35;;;;;;;6.38;5.13;;;;;;;;;;4960578;28;20499;-90
2021/09/07 14:04:04;;;;;;;6.93;5.40;;;;;;;;;;4961839;28;20414;-90
2021/09/07 14:06:31;;;;;;;5.55;5.05;;;;;;;;;;4957756;28;20415;-90
2021/09/07 14:08:58;;;;;;;6.37;4.80;;;;;;;;;;4969600;28;20410;-88
2021/09/07 14:11:25;;;;;;;6.32;5.10;;;;;;;;;;4960453;28;20434;-89
2021/09/07 14:13:52;;;;;;;7.65;5.10;;;;;;;;;;4961405;28;20410;-89
2021/09/07 14:16:19;;;;;;;7.07;5.05;;;;;;;;;;4957767;28;20411;-90
2021/09/07 14:18:45;;;;;;;5.40;4.90;;;;;;;;;;4961419;28;20420;-89
2021/09/07 14:21:14;;;;;;;5.22;4.72;;;;;;;;;;4959265;28;20404;-88
2021/09/07 14:23:41;;;;;;;5.13;4.63;;;;;;;;;;4955013;28;20452;-89
2021/09/07 14:26:08;;;;;;;5.32;4.47;;;;;;;;;;4966867;28;20894;-90
2021/09/07 14:28:35;;;;;;;5.45;4.38;;;;;;;;;;4962696;28;20429;-89
2021/09/07 14:31:02;;;;;;;7.05;4.38;;;;;;;;;;4965138;28;20437;-90
2021/09/07 14:33:29;;;;;;;7.30;4.63;;;;;;;;;;4966069;28;20426;-89
2021/09/07 14:35:56;;;;;;;6.03;4.80;;;;;;;;;;4958970;28;20402;-90
2021/09/07 14:38:24;;;;;;;6.07;4.57;;;;;;;;;;4962533;28;20901;-90
2021/09/07 14:40:51;;;;;;;5.13;4.32;;;;;;;;;;4966124;28;20495;-90
2021/09/07 14:43:18;;;;;;;5.22;4.15;;;;;;;;;;4962240;28;20427;-89
2021/09/07 14:45:45;;;;;;;5.50;4.03;;;;;;;;;;4957955;28;20413;-89
2021/09/07 14:48:15;;;;;;;5.32;4.63;;;;;;;;;;4965860;28;20469;-89
2021/09/07 14:50:43;;;;;;;5.10;4.37;;;;;;;;;;4968145;28;20426;-90
2021/09/07 14:53:10;;;;;;;5.88;4.22;;;;;;;;;;4959812;28;20445;-90
2021/09/07 14:55:39;;;;;;;4.90;4.43;;;;;;;;;;4956182;28;20756;-89